createdAt,value
2022-09-18T00:00:46.046Z,88.56
2022-09-18T00:01:46.054Z,88.56
2022-09-18T00:02:46.047Z,89.48
2022-09-18T00:03:45.991Z,88.35
2022-09-18T00:04:45.993Z,88.45
2022-09-18T00:05:45.956Z,88.14
2022-09-18T00:06:46.005Z,88.49
2022-09-18T00:07:45.935Z,88.80
2022-09-18T00:08:45.914Z,89.21
2022-09-18T00:09:45.907Z,89.11
2022-09-18T00:10:45.902Z,89.31
2022-09-18T00:11:46.884Z,88.90
2022-09-18T00:12:45.874Z,89.01
2022-09-18T00:13:45.855Z,89.31
2022-09-18T00:14:45.847Z,89.42
2022-09-18T00:15:45.922Z,89.52
2022-09-18T00:16:45.837Z,89.62
2022-09-18T00:17:45.826Z,89.83
2022-09-18T00:18:45.796Z,89.87
2022-09-18T00:19:45.801Z,89.97
2022-09-18T00:20:45.775Z,90.08
2022-09-18T00:21:45.755Z,89.87
2022-09-18T00:22:45.766Z,89.87
2022-09-18T00:23:45.735Z,90.08
2022-09-18T00:24:45.716Z,90.24
2022-09-18T00:25:45.706Z,90.14
2022-09-18T00:26:45.699Z,90.34
2022-09-18T00:27:45.666Z,90.08
2022-09-18T00:28:46.666Z,90.28
2022-09-18T00:29:45.647Z,90.38
2022-09-18T00:30:45.656Z,90.44
2022-09-18T00:31:45.697Z,90.44
2022-09-18T00:32:45.607Z,90.44
2022-09-18T00:33:45.619Z,90.14
2022-09-18T00:34:45.586Z,90.14
2022-09-18T00:35:46.607Z,90.24
2022-09-18T00:36:45.548Z,90.44
2022-09-18T00:37:45.539Z,90.14
2022-09-18T00:38:45.527Z,90.24
2022-09-18T00:39:45.527Z,90.44
2022-09-18T00:40:45.528Z,90.34
2022-09-18T00:41:45.493Z,90.34
2022-09-18T00:42:45.467Z,90.44
2022-09-18T00:43:45.495Z,90.55
2022-09-18T00:44:45.447Z,90.44
2022-09-18T00:45:45.463Z,90.55
2022-09-18T00:46:45.493Z,90.44
2022-09-18T00:47:45.432Z,90.34
2022-09-18T00:48:45.398Z,90.55
2022-09-18T00:49:45.400Z,90.44
2022-09-18T00:50:45.389Z,90.24
2022-09-18T00:51:45.358Z,90.14
2022-09-18T00:52:45.360Z,90.24
2022-09-18T00:53:45.338Z,90.44
2022-09-18T00:54:45.328Z,90.34
2022-09-18T00:55:45.319Z,90.34
2022-09-18T00:56:45.300Z,90.44
2022-09-18T00:57:45.290Z,90.34
2022-09-18T00:58:45.259Z,90.50
2022-09-18T00:59:45.279Z,90.71
2022-09-18T01:00:45.322Z,90.30
2022-09-18T01:01:45.268Z,90.40
2022-09-18T01:02:45.220Z,90.30
2022-09-18T01:03:45.213Z,90.20
2022-09-18T01:04:45.220Z,90.40
2022-09-18T01:05:45.199Z,90.50
2022-09-18T01:06:45.190Z,90.50
2022-09-18T01:07:45.161Z,90.81
2022-09-18T01:08:45.165Z,90.71
2022-09-18T01:09:45.122Z,90.61
2022-09-18T01:10:45.143Z,91.12
2022-09-18T01:11:45.102Z,90.81
2022-09-18T01:12:45.132Z,90.81
2022-09-18T01:13:45.142Z,90.81
2022-09-18T01:14:45.063Z,90.81
2022-09-18T01:15:46.155Z,90.81
2022-09-18T01:16:45.084Z,90.91
2022-09-18T01:17:45.075Z,90.91
2022-09-18T01:18:45.069Z,90.91
2022-09-18T01:19:45.083Z,91.12
2022-09-18T01:20:45.031Z,91.33
2022-09-18T01:21:44.973Z,91.12
2022-09-18T01:22:45.003Z,91.02
2022-09-18T01:23:44.944Z,91.12
2022-09-18T01:24:45.023Z,91.22
2022-09-18T01:25:44.953Z,91.22
2022-09-18T01:26:44.934Z,91.42
2022-09-18T01:27:44.932Z,91.42
2022-09-18T01:28:44.954Z,91.49
2022-09-18T01:29:44.996Z,91.28
2022-09-18T01:30:44.945Z,91.28
2022-09-18T01:31:44.944Z,91.28
2022-09-18T01:32:45.883Z,91.38
2022-09-18T01:33:44.884Z,91.28
2022-09-18T01:34:44.876Z,91.38
2022-09-18T01:35:44.900Z,91.08
2022-09-18T01:36:44.819Z,91.18
2022-09-18T01:37:44.794Z,90.97
2022-09-18T01:38:44.815Z,91.08
2022-09-18T01:39:44.814Z,91.18
2022-09-18T01:40:44.723Z,90.87
2022-09-18T01:41:44.743Z,90.87
2022-09-18T01:42:44.694Z,91.08
2022-09-18T01:43:44.687Z,91.18
2022-09-18T01:44:44.674Z,90.97
2022-09-18T01:45:44.667Z,91.38
2022-09-18T01:46:44.721Z,91.18
2022-09-18T01:47:44.635Z,91.08
2022-09-18T01:48:44.626Z,90.97
2022-09-18T01:49:44.606Z,91.08
2022-09-18T01:50:44.597Z,91.18
2022-09-18T01:51:44.594Z,91.08
2022-09-18T01:52:44.689Z,91.08
2022-09-18T01:53:44.564Z,90.83
2022-09-18T01:54:44.544Z,90.73
2022-09-18T01:55:44.548Z,91.03
2022-09-18T01:56:44.506Z,91.14
2022-09-18T01:57:44.508Z,90.73
2022-09-18T01:58:44.487Z,90.52
2022-09-18T01:59:44.502Z,90.73
2022-09-18T02:00:44.469Z,90.83
2022-09-18T02:01:44.604Z,91.03
2022-09-18T02:02:44.497Z,91.03
2022-09-18T02:03:44.463Z,91.35
2022-09-18T02:04:44.422Z,91.44
2022-09-18T02:05:44.398Z,91.65
2022-09-18T02:06:44.389Z,91.35
2022-09-18T02:07:44.401Z,91.24
2022-09-18T02:08:44.380Z,91.44
2022-09-18T02:09:44.353Z,91.44
2022-09-18T02:10:44.346Z,91.65
2022-09-18T02:11:44.347Z,91.90
2022-09-18T02:12:44.334Z,92.06
2022-09-18T02:13:44.303Z,91.75
2022-09-18T02:14:44.286Z,91.86
2022-09-18T02:15:44.292Z,92.06
2022-09-18T02:16:44.252Z,92.27
2022-09-18T02:17:44.239Z,92.27
2022-09-18T02:18:44.241Z,92.36
2022-09-18T02:19:44.215Z,92.16
2022-09-18T02:20:44.228Z,91.96
2022-09-18T02:21:44.190Z,92.16
2022-09-18T02:22:44.257Z,91.96
2022-09-18T02:23:44.169Z,92.06
2022-09-18T02:24:44.151Z,92.16
2022-09-18T02:25:44.149Z,92.31
2022-09-18T02:26:44.127Z,92.51
2022-09-18T02:27:44.330Z,92.72
2022-09-18T02:28:44.089Z,92.82
2022-09-18T02:29:44.089Z,93.02
2022-09-18T02:30:45.071Z,92.93
2022-09-18T02:31:44.135Z,93.13
2022-09-18T02:32:44.052Z,93.02
2022-09-18T02:33:44.041Z,92.82
2022-09-18T02:34:44.021Z,92.93
2022-09-18T02:35:44.039Z,92.93
2022-09-18T02:36:43.981Z,93.02
2022-09-18T02:37:43.990Z,93.02
2022-09-18T02:38:43.992Z,93.23
2022-09-18T02:39:43.960Z,93.13
2022-09-18T02:40:43.946Z,93.13
2022-09-18T02:41:43.942Z,93.23
2022-09-18T02:42:43.921Z,93.23
2022-09-18T02:43:43.902Z,93.33
2022-09-18T02:44:43.899Z,93.54
2022-09-18T02:45:43.906Z,93.85
2022-09-18T02:46:43.923Z,93.95
2022-09-18T02:47:44.862Z,93.54
2022-09-18T02:48:43.863Z,93.74
2022-09-18T02:49:43.833Z,93.74
2022-09-18T02:50:43.818Z,93.60
2022-09-18T02:51:43.821Z,93.64
2022-09-18T02:52:43.802Z,93.95
2022-09-18T02:53:43.773Z,93.64
2022-09-18T02:54:43.782Z,93.85
2022-09-18T02:55:43.763Z,93.85
2022-09-18T02:56:43.742Z,93.95
2022-09-18T02:57:43.720Z,93.85
2022-09-18T02:58:43.702Z,93.95
2022-09-18T02:59:43.691Z,94.05
2022-09-18T03:00:43.692Z,94.15
2022-09-18T03:01:43.802Z,94.26
2022-09-18T03:02:43.766Z,94.15
2022-09-18T03:03:43.634Z,94.05
2022-09-18T03:04:43.635Z,93.80
2022-09-18T03:05:43.633Z,93.70
2022-09-18T03:06:43.608Z,93.60
2022-09-18T03:07:43.623Z,93.70
2022-09-18T03:08:43.599Z,93.49
2022-09-18T03:09:43.614Z,93.29
2022-09-18T03:10:43.554Z,93.29
2022-09-18T03:11:43.544Z,93.49
2022-09-18T03:12:43.538Z,93.39
2022-09-18T03:13:43.518Z,92.88
2022-09-18T03:14:43.501Z,92.57
2022-09-18T03:15:43.598Z,92.68
2022-09-18T03:16:43.466Z,92.98
2022-09-18T03:17:43.477Z,92.68
2022-09-18T03:18:43.435Z,92.78
2022-09-18T03:19:43.454Z,92.98
2022-09-18T03:20:43.686Z,93.08
2022-09-18T03:21:43.408Z,92.68
2022-09-18T03:22:45.435Z,92.88
2022-09-18T03:23:45.519Z,92.78
2022-09-18T03:24:43.366Z,92.68
2022-09-18T03:25:43.355Z,92.68
2022-09-18T03:26:43.363Z,92.68
2022-09-18T03:27:43.327Z,92.68
2022-09-18T03:28:43.305Z,92.68
2022-09-18T03:29:44.318Z,92.78
2022-09-18T03:30:43.290Z,92.88
2022-09-18T03:31:43.412Z,92.98
2022-09-18T03:32:43.256Z,93.08
2022-09-18T03:33:43.257Z,92.78
2022-09-18T03:34:44.228Z,92.68
2022-09-18T03:35:43.234Z,92.98
2022-09-18T03:36:43.206Z,92.88
2022-09-18T03:37:43.197Z,92.36
2022-09-18T03:38:43.198Z,92.83
2022-09-18T03:39:43.166Z,92.22
2022-09-18T03:40:47.319Z,92.22
2022-09-18T03:41:44.139Z,92.27
2022-09-18T03:42:43.148Z,92.16
2022-09-18T03:43:43.129Z,92.36
2022-09-18T03:44:43.117Z,92.47
2022-09-18T03:45:43.108Z,92.57
2022-09-18T03:46:44.124Z,92.22
2022-09-18T03:47:43.079Z,92.06
2022-09-18T03:48:43.048Z,92.53
2022-09-18T03:49:44.036Z,92.02
2022-09-18T04:03:13.656Z,91.91
2022-09-18T04:04:13.658Z,91.96
2022-09-18T04:05:13.560Z,92.27
2022-09-18T04:06:13.610Z,92.36
2022-09-18T04:07:13.583Z,92.32
2022-09-18T04:08:15.560Z,92.32
2022-09-18T04:09:13.599Z,91.91
2022-09-18T04:10:13.633Z,91.71
2022-09-18T04:11:13.502Z,91.91
2022-09-18T04:12:13.531Z,91.96
2022-09-18T04:13:13.471Z,92.06
2022-09-18T04:14:13.530Z,92.27
2022-09-18T04:15:13.442Z,92.06
2022-09-18T04:16:13.495Z,92.47
2022-09-18T04:17:13.470Z,92.63
2022-09-18T04:18:13.487Z,92.43
2022-09-18T04:19:13.455Z,92.12
2022-09-18T04:20:13.468Z,92.02
2022-09-18T04:21:13.372Z,92.02
2022-09-18T04:22:13.411Z,91.61
2022-09-18T04:23:13.381Z,91.82
2022-09-18T04:24:13.390Z,91.82
2022-09-18T04:25:13.417Z,91.61
2022-09-18T04:26:13.301Z,91.61
2022-09-18T04:27:13.352Z,91.86
2022-09-18T04:28:13.337Z,92.06
2022-09-18T04:29:13.323Z,92.16
2022-09-18T04:30:13.341Z,92.32
2022-09-18T04:31:13.386Z,92.22
2022-09-18T04:32:13.262Z,92.43
2022-09-18T04:33:14.055Z,91.91
2022-09-18T04:34:13.249Z,91.82
2022-09-18T04:35:13.262Z,91.71
2022-09-18T04:36:13.278Z,91.82
2022-09-18T04:37:13.162Z,92.12
2022-09-18T04:38:13.185Z,92.02
2022-09-18T04:39:13.132Z,91.40
2022-09-18T04:40:13.249Z,91.40
2022-09-18T04:41:13.213Z,91.40
2022-09-18T04:42:13.095Z,91.40
2022-09-18T04:43:13.077Z,91.50
2022-09-18T04:44:13.075Z,91.82
2022-09-18T04:45:13.055Z,91.71
2022-09-18T04:46:13.138Z,91.61
2022-09-18T04:47:13.014Z,91.61
2022-09-18T04:48:13.012Z,91.75
2022-09-18T04:49:12.993Z,91.86
2022-09-18T04:50:13.162Z,91.86
2022-09-18T04:51:13.097Z,91.65
2022-09-18T04:52:13.006Z,91.65
2022-09-18T04:53:13.024Z,91.55
2022-09-18T04:54:33.935Z,91.65
2022-09-18T04:55:12.926Z,91.86
2022-09-18T04:56:12.896Z,91.65
2022-09-18T04:57:12.898Z,91.55
2022-09-18T04:58:12.906Z,91.55
2022-09-18T04:59:12.913Z,91.65
2022-09-18T05:00:12.933Z,91.35
2022-09-18T05:01:13.004Z,91.14
2022-09-18T05:02:12.902Z,91.50
2022-09-18T05:03:12.837Z,91.20
2022-09-18T05:04:12.808Z,90.99
2022-09-18T05:05:12.786Z,90.89
2022-09-18T05:06:12.785Z,90.79
2022-09-18T05:07:12.798Z,90.89
2022-09-18T05:08:12.867Z,91.20
2022-09-18T05:09:12.785Z,91.09
2022-09-18T05:10:12.795Z,90.89
2022-09-18T05:11:12.718Z,91.09
2022-09-18T05:12:12.733Z,91.20
2022-09-18T05:13:12.690Z,91.50
2022-09-18T05:14:12.732Z,91.40
2022-09-18T05:15:12.657Z,91.09
2022-09-18T05:16:12.707Z,91.09
2022-09-18T05:17:12.671Z,90.99
2022-09-18T05:18:12.637Z,90.79
2022-09-18T05:19:12.638Z,90.89
2022-09-18T05:20:12.657Z,90.79
2022-09-18T05:21:12.584Z,90.99
2022-09-18T05:22:12.716Z,90.79
2022-09-18T05:23:12.571Z,90.89
2022-09-18T05:24:12.539Z,90.99
2022-09-18T05:25:12.592Z,91.09
2022-09-18T05:26:12.593Z,90.95
2022-09-18T05:27:12.608Z,90.54
2022-09-18T05:28:12.554Z,90.13
2022-09-18T05:29:12.518Z,90.34
2022-09-18T05:30:12.611Z,90.34
2022-09-18T05:31:12.545Z,90.84
2022-09-18T05:32:13.461Z,90.64
2022-09-18T05:33:12.436Z,90.23
2022-09-18T05:34:12.439Z,90.23
2022-09-18T05:35:12.458Z,90.03
2022-09-18T05:36:12.412Z,90.34
2022-09-18T05:37:12.484Z,90.23
2022-09-18T05:38:12.411Z,90.23
2022-09-18T05:39:17.279Z,89.72
2022-09-18T05:40:14.549Z,90.13
2022-09-18T05:41:12.384Z,90.13
2022-09-18T05:42:12.420Z,90.44
2022-09-18T05:43:12.302Z,90.03
2022-09-18T05:44:12.331Z,90.23
2022-09-18T05:45:12.323Z,90.13
2022-09-18T05:46:12.368Z,89.92
2022-09-18T05:47:12.352Z,90.13
2022-09-18T05:48:12.241Z,90.23
2022-09-18T05:49:12.269Z,90.44
2022-09-18T05:50:12.253Z,90.64
2022-09-18T05:51:12.284Z,90.44
2022-09-18T05:52:12.191Z,90.64
2022-09-18T05:53:12.352Z,90.23
2022-09-18T05:54:12.193Z,90.34
2022-09-18T05:55:12.143Z,90.75
2022-09-18T05:56:12.210Z,90.44
2022-09-18T05:57:12.201Z,90.34
2022-09-18T05:58:12.160Z,90.54
2022-09-18T05:59:12.138Z,90.75
2022-09-18T06:00:12.154Z,91.36
2022-09-18T06:01:12.149Z,91.67
2022-09-18T06:02:12.086Z,91.77
2022-09-18T06:03:12.164Z,91.82
2022-09-18T06:04:12.079Z,92.02
2022-09-18T06:05:12.018Z,92.28
2022-09-18T06:06:12.074Z,92.28
2022-09-18T06:07:11.997Z,92.08
2022-09-18T06:08:13.039Z,91.91
2022-09-18T06:09:11.964Z,92.02
2022-09-18T06:10:11.995Z,92.22
2022-09-18T06:11:12.005Z,92.32
2022-09-18T06:12:12.006Z,92.32
2022-09-18T06:13:11.964Z,92.43
2022-09-18T06:14:11.913Z,92.53
2022-09-18T06:15:11.933Z,92.90
2022-09-18T06:16:11.971Z,92.69
2022-09-18T06:17:11.946Z,92.49
2022-09-18T06:18:11.947Z,92.74
2022-09-18T06:20:22.073Z,93.15
2022-09-18T06:21:22.113Z,93.35
2022-09-18T06:22:22.033Z,93.71
2022-09-18T06:23:22.053Z,93.82
2022-09-18T06:24:22.033Z,93.71
2022-09-18T06:25:22.043Z,93.62
2022-09-18T06:26:22.042Z,93.35
2022-09-18T06:27:22.043Z,93.35
2022-09-18T06:28:21.993Z,93.76
2022-09-18T06:29:21.987Z,93.66
2022-09-18T06:30:21.963Z,93.96
2022-09-18T06:31:22.011Z,93.96
2022-09-18T06:32:21.985Z,94.07
2022-09-18T06:33:21.921Z,94.17
2022-09-18T06:34:22.006Z,94.23
2022-09-18T06:35:21.898Z,93.51
2022-09-18T06:36:21.883Z,93.41
2022-09-18T06:37:21.932Z,93.71
2022-09-18T06:38:21.856Z,94.02
2022-09-18T06:39:21.933Z,93.96
2022-09-18T06:40:21.911Z,93.76
2022-09-18T06:41:21.835Z,94.07
2022-09-18T06:42:21.794Z,94.58
2022-09-18T06:43:21.796Z,94.27
2022-09-18T06:44:21.756Z,94.68
2022-09-18T06:45:21.726Z,94.78
2022-09-18T06:46:21.796Z,95.09
2022-09-18T06:47:21.730Z,95.40
2022-09-18T06:48:24.986Z,95.29
2022-09-18T06:49:22.725Z,95.09
2022-09-18T06:50:21.682Z,94.99
2022-09-18T06:51:21.695Z,95.09
2022-09-18T06:52:21.666Z,95.20
2022-09-18T06:53:21.757Z,95.29
2022-09-18T06:54:21.615Z,95.66
2022-09-18T06:55:21.617Z,95.15
2022-09-18T06:56:21.637Z,94.68
2022-09-18T06:57:21.592Z,94.89
2022-09-18T06:58:21.657Z,94.95
2022-09-18T06:59:21.577Z,94.95
2022-09-18T07:00:21.557Z,94.74
2022-09-18T07:01:21.608Z,94.33
2022-09-18T07:02:21.602Z,94.64
2022-09-18T07:03:21.576Z,94.84
2022-09-18T07:04:22.558Z,94.23
2022-09-18T07:05:21.488Z,94.43
2022-09-18T07:06:22.460Z,94.95
2022-09-18T07:07:21.446Z,94.84
2022-09-18T07:08:21.516Z,94.23
2022-09-18T07:09:21.440Z,94.07
2022-09-18T07:10:21.408Z,94.43
2022-09-18T07:11:21.397Z,94.43
2022-09-18T07:12:21.388Z,94.43
2022-09-18T07:13:21.466Z,94.64
2022-09-18T07:14:21.377Z,95.05
2022-09-18T07:15:21.473Z,94.95
2022-09-18T07:16:21.501Z,94.54
2022-09-18T07:17:26.041Z,94.64
2022-09-18T07:18:22.332Z,94.74
2022-09-18T07:19:21.309Z,94.84
2022-09-18T07:20:21.324Z,94.95
2022-09-18T07:21:21.327Z,94.84
2022-09-18T07:22:21.269Z,94.95
2022-09-18T07:23:21.339Z,94.89
2022-09-18T07:24:21.246Z,95.25
2022-09-18T07:25:21.225Z,95.20
2022-09-18T07:26:21.232Z,95.36
2022-09-18T07:27:21.236Z,95.29
2022-09-18T07:28:21.192Z,95.76
2022-09-18T07:29:21.172Z,96.07
2022-09-18T07:30:21.149Z,95.76
2022-09-18T07:31:21.221Z,95.66
2022-09-18T07:32:21.140Z,95.66
2022-09-18T07:33:22.156Z,95.56
2022-09-18T07:34:21.195Z,95.87
2022-09-18T07:35:21.200Z,95.87
2022-09-18T07:36:21.092Z,96.07
2022-09-18T07:37:21.132Z,96.17
2022-09-18T07:38:21.143Z,95.97
2022-09-18T07:39:21.073Z,96.17
2022-09-18T07:40:22.121Z,95.56
2022-09-18T07:41:21.032Z,95.46
2022-09-18T07:42:21.006Z,95.56
2022-09-18T07:43:21.077Z,96.07
2022-09-18T07:44:21.099Z,96.07
2022-09-18T07:45:21.982Z,96.38
2022-09-18T07:46:21.010Z,96.07
2022-09-18T07:47:22.761Z,96.28
2022-09-18T07:48:20.990Z,95.87
2022-09-18T07:49:20.926Z,95.66
2022-09-18T07:50:20.901Z,95.56
2022-09-18T07:51:25.435Z,95.97
2022-09-18T07:52:21.937Z,96.48
2022-09-18T07:53:20.864Z,96.58
2022-09-18T07:54:20.934Z,96.48
2022-09-18T07:55:20.971Z,96.48
2022-09-18T07:56:20.829Z,96.17
2022-09-18T07:57:20.794Z,96.28
2022-09-18T07:58:20.793Z,96.89
2022-09-18T07:59:20.964Z,96.99
2022-09-18T08:00:20.855Z,96.33
2022-09-18T08:01:20.821Z,95.82
2022-09-18T08:02:20.835Z,96.13
2022-09-18T08:03:20.776Z,96.23
2022-09-18T08:04:20.795Z,96.33
2022-09-18T08:05:20.775Z,96.17
2022-09-18T08:06:20.794Z,96.38
2022-09-18T08:07:20.697Z,96.48
2022-09-18T08:08:20.697Z,96.69
2022-09-18T08:09:20.668Z,96.58
2022-09-18T08:10:20.734Z,96.58
2022-09-18T08:11:20.615Z,96.89
2022-09-18T08:12:21.573Z,96.69
2022-09-18T08:13:20.587Z,96.99
2022-09-18T08:14:21.924Z,96.38
2022-09-18T08:15:20.600Z,96.38
2022-09-18T08:16:20.710Z,96.28
2022-09-18T08:17:20.622Z,96.17
2022-09-18T08:18:20.634Z,96.58
2022-09-18T08:19:20.529Z,96.69
2022-09-18T08:20:20.683Z,96.99
2022-09-18T08:21:20.529Z,96.69
2022-09-18T08:22:20.538Z,96.17
2022-09-18T08:23:20.560Z,96.28
2022-09-18T08:24:20.508Z,96.38
2022-09-18T08:25:20.441Z,96.69
2022-09-18T08:26:22.453Z,96.89
2022-09-18T08:27:22.657Z,96.89
2022-09-18T08:28:20.399Z,97.09
2022-09-18T08:29:21.506Z,97.40
2022-09-18T08:30:20.522Z,97.40
2022-09-18T08:31:20.399Z,96.89
2022-09-18T08:33:30.774Z,96.89
2022-09-18T08:34:30.628Z,96.99
2022-09-18T08:35:30.542Z,96.89
2022-09-18T08:36:30.677Z,96.79
2022-09-18T08:37:30.567Z,96.58
2022-09-18T08:38:30.617Z,95.87
2022-09-18T08:39:30.595Z,96.38
2022-09-18T08:40:30.601Z,96.89
2022-09-18T08:41:30.628Z,96.69
2022-09-18T08:42:30.487Z,96.58
2022-09-18T08:43:30.486Z,96.69
2022-09-18T08:44:30.601Z,96.79
2022-09-18T08:45:30.508Z,96.58
2022-09-18T08:46:30.416Z,96.89
2022-09-18T08:47:30.503Z,97.09
2022-09-18T08:48:30.462Z,96.69
2022-09-18T08:49:30.467Z,96.64
2022-09-18T08:50:33.838Z,96.44
2022-09-18T08:51:31.398Z,95.41
2022-09-18T08:52:30.388Z,95.72
2022-09-18T08:53:30.698Z,95.92
2022-09-18T08:54:30.310Z,95.72
2022-09-18T08:55:30.377Z,96.13
2022-09-18T08:56:30.382Z,95.51
2022-09-18T08:57:30.353Z,95.62
2022-09-18T08:58:30.241Z,95.82
2022-09-18T08:59:31.546Z,95.62
2022-09-18T09:00:30.488Z,95.82
2022-09-18T09:01:30.279Z,96.23
2022-09-18T09:02:30.234Z,96.54
2022-09-18T09:03:30.211Z,96.13
2022-09-18T09:04:31.242Z,95.72
2022-09-18T09:05:30.291Z,95.51
2022-09-18T09:06:30.133Z,94.90
2022-09-18T09:07:30.456Z,95.10
2022-09-18T09:08:30.152Z,95.06
2022-09-18T09:09:30.125Z,94.90
2022-09-18T09:10:30.222Z,94.59
2022-09-18T09:11:30.161Z,94.49
2022-09-18T09:12:31.324Z,94.49
2022-09-18T09:13:30.073Z,93.88
2022-09-18T09:14:52.709Z,93.77
2022-09-18T09:15:31.342Z,93.67
2022-09-18T09:16:30.038Z,93.73
2022-09-18T09:17:29.984Z,94.04
2022-09-18T09:18:29.989Z,94.24
2022-09-18T09:19:30.024Z,93.93
2022-09-18T09:20:30.067Z,93.32
2022-09-18T09:21:30.025Z,93.12
2022-09-18T09:22:29.934Z,93.07
2022-09-18T09:23:29.944Z,92.66
2022-09-18T09:24:29.893Z,92.11
2022-09-18T09:25:30.009Z,91.80
2022-09-18T09:26:30.084Z,91.80
2022-09-18T09:27:29.873Z,91.50
2022-09-18T09:28:29.843Z,92.01
2022-09-18T09:29:29.878Z,91.66
2022-09-18T09:30:31.875Z,91.56
2022-09-18T09:31:29.937Z,90.70
2022-09-18T09:32:29.906Z,90.08
2022-09-18T09:33:30.836Z,89.72
2022-09-18T09:34:29.807Z,90.70
2022-09-18T09:35:31.793Z,89.78
2022-09-18T09:36:29.853Z,89.41
2022-09-18T09:37:33.659Z,89.88
2022-09-18T09:38:29.717Z,89.51
2022-09-18T09:39:29.753Z,89.98
2022-09-18T09:40:30.194Z,88.85
2022-09-18T09:41:29.757Z,88.55
2022-09-18T09:42:29.769Z,88.65
2022-09-18T09:43:29.648Z,88.14
2022-09-18T09:44:29.678Z,88.45
2022-09-18T09:45:30.013Z,88.29
2022-09-18T09:46:30.739Z,88.79
2022-09-18T09:47:29.587Z,89.06
2022-09-18T10:03:32.047Z,85.86
2022-09-18T10:04:32.037Z,86.57
2022-09-18T10:05:32.134Z,86.16
2022-09-18T10:06:32.090Z,86.36
2022-09-18T10:07:32.007Z,87.08
2022-09-18T10:08:32.009Z,86.57
2022-09-18T10:09:32.159Z,85.96
2022-09-18T10:10:32.049Z,85.45
2022-09-18T10:11:31.939Z,85.75
2022-09-18T10:12:31.939Z,86.26
2022-09-18T10:13:31.950Z,86.16
2022-09-18T10:14:32.992Z,86.47
2022-09-18T10:15:31.988Z,85.49
2022-09-18T10:16:31.921Z,85.75
2022-09-18T10:17:31.869Z,85.65
2022-09-18T10:18:31.850Z,85.45
2022-09-18T10:19:32.940Z,85.24
2022-09-18T10:20:31.906Z,85.18
2022-09-18T10:21:31.819Z,84.88
2022-09-18T10:22:31.907Z,84.98
2022-09-18T10:23:33.909Z,86.20
2022-09-18T10:24:31.857Z,86.82
2022-09-18T10:25:31.841Z,86.20
2022-09-18T10:26:31.785Z,86.71
2022-09-18T10:27:31.740Z,86.71
2022-09-18T10:28:32.871Z,87.02
2022-09-18T10:29:35.156Z,86.41
2022-09-18T10:30:33.799Z,86.71
2022-09-18T10:31:31.884Z,86.51
2022-09-18T10:32:31.677Z,86.71
2022-09-18T10:33:31.764Z,86.71
2022-09-18T10:34:31.642Z,86.77
2022-09-18T10:35:34.894Z,86.77
2022-09-18T10:36:31.614Z,86.88
2022-09-18T10:37:31.679Z,87.18
2022-09-18T10:38:31.744Z,86.94
2022-09-18T10:39:31.885Z,86.63
2022-09-18T10:40:31.635Z,85.92
2022-09-18T10:41:31.552Z,85.61
2022-09-18T10:42:31.680Z,85.21
2022-09-18T10:43:31.596Z,85.41
2022-09-18T10:44:32.526Z,85.75
2022-09-18T10:45:31.721Z,86.26
2022-09-18T10:46:31.518Z,86.77
2022-09-18T10:47:31.525Z,86.98
2022-09-18T10:48:31.547Z,87.59
2022-09-18T10:49:32.470Z,87.79
2022-09-18T10:50:34.436Z,88.31
2022-09-18T10:51:31.495Z,87.79
2022-09-18T10:52:31.439Z,87.49
2022-09-18T10:53:31.478Z,87.59
2022-09-18T10:54:32.458Z,87.29
2022-09-18T10:55:31.407Z,87.38
2022-09-18T10:56:31.358Z,87.29
2022-09-18T10:57:31.407Z,87.79
2022-09-18T10:58:31.450Z,88.20
2022-09-18T10:59:31.422Z,88.00
2022-09-18T11:00:32.421Z,87.90
2022-09-18T11:01:31.360Z,88.00
2022-09-18T11:02:31.331Z,88.00
2022-09-18T11:03:31.410Z,88.20
2022-09-18T11:04:31.248Z,87.79
2022-09-18T11:05:31.260Z,88.31
2022-09-18T11:06:31.228Z,88.61
2022-09-18T11:07:31.222Z,88.31
2022-09-18T11:08:31.441Z,88.65
2022-09-18T11:09:31.297Z,88.76
2022-09-18T11:10:31.273Z,89.26
2022-09-18T11:11:31.233Z,89.67
2022-09-18T11:12:31.143Z,89.47
2022-09-18T11:13:31.204Z,89.88
2022-09-18T11:14:31.126Z,90.39
2022-09-18T11:15:31.137Z,90.08
2022-09-18T11:16:32.466Z,90.49
2022-09-18T11:17:31.306Z,90.90
2022-09-18T11:18:31.150Z,90.90
2022-09-18T11:19:31.094Z,90.39
2022-09-18T11:20:31.058Z,90.29
2022-09-18T11:21:31.189Z,90.39
2022-09-18T11:22:31.130Z,90.49
2022-09-18T11:23:31.238Z,90.39
2022-09-18T11:24:31.070Z,90.08
2022-09-18T11:25:31.115Z,90.39
2022-09-18T11:26:31.206Z,90.29
2022-09-18T11:27:30.985Z,89.88
2022-09-18T11:28:31.021Z,88.65
2022-09-18T11:29:30.985Z,89.17
2022-09-18T11:30:31.089Z,89.06
2022-09-18T11:31:30.945Z,88.96
2022-09-18T11:32:30.918Z,88.65
2022-09-18T11:33:31.938Z,88.96
2022-09-18T11:34:32.002Z,88.96
2022-09-18T11:35:30.944Z,89.17
2022-09-18T11:36:30.972Z,88.76
2022-09-18T11:37:30.851Z,88.55
2022-09-18T11:38:30.881Z,88.76
2022-09-18T11:39:30.916Z,88.45
2022-09-18T11:40:31.891Z,88.96
2022-09-18T11:41:30.792Z,88.45
2022-09-18T11:42:30.807Z,88.96
2022-09-18T11:43:30.789Z,89.06
2022-09-18T11:44:30.738Z,89.06
2022-09-18T11:45:31.756Z,88.31
2022-09-18T11:46:30.806Z,88.31
2022-09-18T11:47:30.785Z,88.61
2022-09-18T11:48:30.671Z,88.71
2022-09-18T11:49:30.649Z,88.71
2022-09-18T11:50:30.659Z,88.92
2022-09-18T11:51:33.880Z,89.32
2022-09-18T11:52:31.797Z,89.32
2022-09-18T11:53:30.730Z,89.23
2022-09-18T11:54:30.802Z,88.31
2022-09-18T11:55:33.489Z,88.61
2022-09-18T11:56:30.716Z,89.23
2022-09-18T11:57:31.649Z,89.53
2022-09-18T11:58:30.540Z,88.82
2022-09-18T11:59:30.531Z,88.82
2022-09-18T12:00:30.542Z,88.31
2022-09-18T12:01:30.539Z,88.41
2022-09-18T12:02:30.687Z,88.61
2022-09-18T12:03:30.539Z,88.61
2022-09-18T12:04:30.453Z,88.10
2022-09-18T12:05:30.475Z,87.49
2022-09-18T12:06:30.447Z,86.94
2022-09-18T12:07:43.800Z,87.24
2022-09-18T12:08:29.055Z,87.14
2022-09-18T12:09:29.072Z,86.18
2022-09-18T12:10:29.077Z,86.08
2022-09-18T12:11:29.097Z,85.16
2022-09-18T12:12:29.075Z,85.68
2022-09-18T12:13:29.073Z,85.77
2022-09-18T12:14:29.085Z,85.37
2022-09-18T12:15:28.985Z,85.37
2022-09-18T12:16:28.982Z,85.37
2022-09-18T12:17:28.924Z,84.14
2022-09-18T12:18:29.011Z,84.45
2022-09-18T12:19:28.993Z,84.66
2022-09-18T12:20:49.962Z,85.16
2022-09-18T12:21:28.871Z,85.47
2022-09-18T12:22:28.887Z,84.55
2022-09-18T12:23:28.892Z,84.75
2022-09-18T12:24:28.829Z,84.66
2022-09-18T12:25:28.808Z,84.25
2022-09-18T12:26:29.930Z,84.41
2022-09-18T12:27:28.826Z,84.11
2022-09-18T12:28:29.844Z,83.49
2022-09-18T12:29:28.934Z,82.78
2022-09-18T12:30:29.932Z,83.18
2022-09-18T12:31:28.798Z,83.09
2022-09-18T12:32:29.772Z,82.33
2022-09-18T12:33:33.437Z,82.84
2022-09-18T12:34:29.789Z,81.11
2022-09-18T12:35:28.758Z,80.70
2022-09-18T12:36:28.681Z,81.41
2022-09-18T12:37:28.716Z,82.03
2022-09-18T12:38:28.662Z,81.72
2022-09-18T12:39:29.398Z,82.23
2022-09-18T12:40:29.337Z,82.23
2022-09-18T12:41:29.289Z,82.13
2022-09-18T12:42:29.417Z,81.82
2022-09-18T12:43:29.327Z,81.31
2022-09-18T12:44:29.317Z,82.33
2022-09-18T12:45:29.370Z,82.64
2022-09-18T12:46:29.296Z,82.94
2022-09-18T12:47:29.207Z,83.25
2022-09-18T12:48:29.296Z,83.35
2022-09-18T12:49:29.273Z,82.03
2022-09-18T12:50:29.255Z,82.74
2022-09-18T12:51:29.212Z,82.84
2022-09-18T12:52:29.251Z,83.15
2022-09-18T12:53:29.193Z,82.54
2022-09-18T12:54:52.140Z,83.65
2022-09-18T12:55:29.078Z,83.04
2022-09-18T12:56:29.110Z,83.49
2022-09-18T12:57:29.039Z,83.70
2022-09-18T12:58:29.107Z,82.78
2022-09-18T12:59:50.137Z,83.09
2022-09-18T13:00:28.995Z,82.88
2022-09-18T13:01:29.140Z,82.98
2022-09-18T13:02:29.122Z,82.98
2022-09-18T13:03:29.049Z,83.29
2022-09-18T13:04:28.955Z,83.49
2022-09-18T13:05:30.004Z,83.49
2022-09-18T13:06:29.016Z,83.39
2022-09-18T13:07:28.995Z,82.88
2022-09-18T13:08:28.881Z,83.09
2022-09-18T13:09:28.928Z,82.54
2022-09-18T13:10:28.980Z,82.43
2022-09-18T13:11:29.888Z,82.33
2022-09-18T13:12:28.971Z,82.33
2022-09-18T13:13:28.864Z,81.82
2022-09-18T13:14:28.839Z,81.31
2022-09-18T13:15:28.865Z,82.23
2022-09-18T13:16:29.573Z,82.13
2022-09-18T13:17:29.644Z,81.93
2022-09-18T13:18:29.508Z,82.03
2022-09-18T13:19:29.496Z,82.94
2022-09-18T13:20:29.567Z,83.25
2022-09-18T13:21:29.495Z,81.82
2022-09-18T13:22:29.423Z,82.43